createdAt,value
2019-03-24T00:00:05.510Z,19.93
2019-03-24T00:02:33.131Z,20.70
2019-03-24T00:05:00.704Z,18.87
2019-03-24T00:07:28.667Z,21.10
2019-03-24T00:09:56.767Z,19.67
2019-03-24T00:12:24.816Z,19.50
2019-03-24T00:14:53.955Z,19.40
2019-03-24T00:17:21.655Z,19.50
2019-03-24T00:19:49.791Z,21.13
2019-03-24T00:22:17.953Z,24.37
2019-03-24T00:24:45.957Z,22.47
2019-03-24T00:27:13.643Z,21.67
2019-03-24T00:29:43.316Z,19.60
2019-03-24T00:32:11.571Z,20.47
2019-03-24T00:34:39.640Z,19.03
2019-03-24T00:37:07.419Z,21.00
2019-03-24T00:39:37.431Z,20.87
2019-03-24T00:42:05.384Z,22.52
2019-03-24T00:44:33.039Z,21.40
2019-03-24T00:47:01.453Z,21.60
2019-03-24T00:49:31.164Z,22.37
2019-03-24T00:51:58.879Z,23.73
2019-03-24T00:54:26.528Z,22.87
2019-03-24T00:56:55.096Z,22.77
2019-03-24T00:59:22.731Z,22.67
2019-03-24T01:01:51.079Z,23.40
2019-03-24T01:04:18.732Z,22.00
2019-03-24T01:06:46.977Z,21.67
2019-03-24T01:09:15.667Z,21.63
2019-03-24T01:11:43.684Z,20.23
2019-03-24T01:14:12.364Z,23.50
2019-03-24T01:16:39.923Z,20.07
2019-03-24T01:19:11.076Z,21.90
2019-03-24T01:21:40.055Z,19.93
2019-03-24T01:24:08.541Z,22.20
2019-03-24T01:26:38.224Z,22.23
2019-03-24T01:29:07.715Z,21.10
2019-03-24T01:31:36.670Z,22.53
2019-03-24T01:34:05.136Z,22.50
2019-03-24T01:36:33.260Z,21.07
2019-03-24T01:39:04.329Z,21.77
2019-03-24T01:41:33.904Z,21.50
2019-03-24T01:44:01.350Z,22.40
2019-03-24T01:46:29.505Z,20.00
2019-03-24T01:48:57.153Z,21.33
2019-03-24T01:51:26.668Z,20.63
2019-03-24T01:53:54.228Z,21.60
2019-03-24T01:56:22.148Z,23.40
2019-03-24T01:58:50.675Z,22.53
2019-03-24T02:01:19.169Z,22.70
2019-03-24T02:03:47.035Z,27.10
2019-03-24T02:06:15.420Z,23.47
2019-03-24T02:08:43.518Z,21.73
2019-03-24T02:11:11.201Z,21.43
2019-03-24T02:13:39.837Z,19.80
2019-03-24T02:16:09.524Z,22.20
2019-03-24T02:18:37.250Z,20.60
2019-03-24T02:21:05.035Z,21.97
2019-03-24T02:23:32.411Z,21.63
2019-03-24T02:26:00.260Z,20.00
2019-03-24T02:28:29.457Z,21.60
2019-03-24T02:30:58.942Z,21.37
2019-03-24T02:33:26.316Z,21.83
2019-03-24T02:35:53.825Z,20.73
2019-03-24T02:38:21.771Z,19.90
2019-03-24T02:40:49.324Z,20.03
2019-03-24T02:43:18.528Z,20.87
2019-03-24T02:45:46.179Z,19.50
2019-03-24T02:48:15.240Z,21.63
2019-03-24T02:50:42.887Z,22.37
2019-03-24T02:53:11.528Z,20.17
2019-03-24T02:55:40.505Z,21.87
2019-03-24T02:58:08.699Z,20.90
2019-03-24T03:00:36.412Z,20.23
2019-03-24T03:03:04.011Z,21.40
2019-03-24T03:05:33.088Z,23.40
2019-03-24T03:08:02.213Z,22.87
2019-03-24T03:10:31.700Z,21.97
2019-03-24T03:13:00.099Z,20.33
2019-03-24T03:15:27.475Z,23.47
2019-03-24T03:17:56.223Z,20.50
2019-03-24T03:20:23.755Z,21.23
2019-03-24T03:22:51.832Z,19.77
2019-03-24T03:25:20.320Z,21.50
2019-03-24T03:27:48.939Z,24.10
2019-03-24T03:30:17.003Z,22.50
2019-03-24T03:32:45.556Z,20.77
2019-03-24T03:35:13.976Z,22.50
2019-03-24T03:37:43.025Z,22.50
2019-03-24T03:40:11.125Z,22.70
2019-03-24T03:42:39.805Z,23.47
2019-03-24T03:45:08.421Z,23.20
2019-03-24T03:47:36.089Z,23.30
2019-03-24T03:50:05.779Z,21.97
2019-03-24T03:52:33.756Z,22.20
2019-03-24T03:55:01.763Z,24.97
2019-03-24T03:57:31.084Z,27.00
2019-03-24T03:59:59.626Z,31.70
2019-03-24T04:02:27.254Z,26.17
2019-03-24T04:04:54.804Z,26.03
2019-03-24T04:07:24.252Z,24.40
2019-03-24T04:09:51.884Z,24.07
2019-03-24T04:12:19.489Z,22.50
2019-03-24T04:14:47.250Z,22.13
2019-03-24T04:17:14.803Z,21.57
2019-03-24T04:19:42.599Z,22.90
2019-03-24T04:22:11.269Z,23.70
2019-03-24T04:24:40.313Z,22.47
2019-03-24T04:27:08.768Z,23.37
2019-03-24T04:29:37.005Z,21.90
2019-03-24T04:32:04.934Z,24.20
2019-03-24T04:34:32.638Z,25.57
2019-03-24T04:37:00.229Z,25.30
2019-03-24T04:39:29.292Z,21.77
2019-03-24T04:41:57.391Z,24.80
2019-03-24T04:44:24.807Z,25.23
2019-03-24T04:46:53.747Z,22.63
2019-03-24T04:49:22.895Z,22.70
2019-03-24T04:51:51.693Z,22.13
2019-03-24T04:54:19.111Z,22.87
2019-03-24T04:56:47.039Z,23.30
2019-03-24T04:59:14.880Z,25.03
2019-03-24T05:01:42.803Z,23.13
2019-03-24T05:04:10.430Z,22.00
2019-03-24T05:06:38.451Z,23.97
2019-03-24T05:09:07.096Z,22.83
2019-03-24T05:11:36.049Z,22.80
2019-03-24T05:14:04.108Z,22.33
2019-03-24T05:16:32.372Z,23.70
2019-03-24T05:19:01.264Z,21.60
2019-03-24T05:21:29.392Z,21.40
2019-03-24T05:23:57.340Z,22.13
2019-03-24T05:26:25.383Z,23.33
2019-03-24T05:28:52.897Z,22.70
2019-03-24T05:31:20.723Z,22.50
2019-03-24T05:33:48.335Z,23.40
2019-03-24T05:36:16.261Z,22.97
2019-03-24T05:38:43.927Z,20.83
2019-03-24T05:41:12.015Z,22.43
2019-03-24T05:43:40.347Z,21.93
2019-03-24T05:46:08.168Z,22.80
2019-03-24T05:48:36.483Z,20.90
2019-03-24T05:51:04.815Z,21.40
2019-03-24T05:53:33.067Z,21.70
2019-03-24T05:56:00.919Z,22.23
2019-03-24T05:58:30.311Z,20.97
2019-03-24T06:00:58.567Z,21.57
2019-03-24T06:03:27.536Z,21.67
2019-03-24T06:05:55.440Z,21.33
2019-03-24T06:08:24.069Z,18.90
2019-03-24T06:10:51.542Z,21.00
2019-03-24T06:13:19.359Z,20.47
2019-03-24T06:15:47.404Z,22.30
2019-03-24T06:18:15.644Z,19.23
2019-03-24T06:20:43.745Z,20.53
2019-03-24T06:23:11.366Z,20.33
2019-03-24T06:25:39.609Z,21.30
2019-03-24T06:28:07.368Z,20.70
2019-03-24T06:30:35.030Z,21.80
2019-03-24T06:33:02.967Z,20.80
2019-03-24T06:35:30.791Z,19.73
2019-03-24T06:37:58.640Z,20.47
2019-03-24T06:40:27.208Z,21.53
2019-03-24T06:42:55.087Z,20.40
2019-03-24T06:45:28.514Z,20.20
2019-03-24T06:47:58.009Z,19.37
2019-03-24T06:50:23.810Z,20.97
2019-03-24T06:52:52.035Z,20.00
2019-03-24T06:55:21.179Z,20.50
2019-03-24T06:57:49.095Z,20.67
2019-03-24T07:00:17.276Z,20.73
2019-03-24T07:02:47.128Z,21.10
2019-03-24T07:05:15.219Z,19.90
2019-03-24T07:07:43.479Z,21.50
2019-03-24T07:10:13.166Z,20.20
2019-03-24T07:12:42.079Z,20.00
2019-03-24T07:15:10.266Z,20.03
2019-03-24T07:17:39.371Z,19.77
2019-03-24T07:20:07.759Z,20.53
2019-03-24T07:22:35.415Z,21.70
2019-03-24T07:25:04.435Z,20.53
2019-03-24T07:27:33.437Z,20.77
2019-03-24T07:30:00.975Z,20.73
2019-03-24T07:32:28.961Z,19.73
2019-03-24T07:34:56.470Z,19.97
2019-03-24T07:37:24.902Z,23.00
2019-03-24T07:39:52.584Z,19.33
2019-03-24T07:42:20.991Z,19.97
2019-03-24T07:44:50.595Z,20.53
2019-03-24T07:47:18.132Z,21.30
2019-03-24T07:49:45.889Z,21.73
2019-03-24T07:52:14.416Z,22.00
2019-03-24T07:54:41.964Z,20.17
2019-03-24T07:57:09.510Z,19.27
2019-03-24T07:59:38.205Z,17.70
2019-03-24T08:02:06.801Z,19.53
2019-03-24T08:04:34.571Z,20.77
2019-03-24T08:07:03.134Z,19.60
2019-03-24T08:09:32.536Z,19.40
2019-03-24T08:12:01.144Z,19.90
2019-03-24T08:14:28.815Z,17.70
2019-03-24T08:16:57.135Z,20.30
2019-03-24T08:19:25.039Z,20.23
2019-03-24T08:21:52.948Z,20.20
2019-03-24T08:24:20.677Z,18.80
2019-03-24T08:26:48.223Z,20.07
2019-03-24T08:29:15.908Z,19.80
2019-03-24T08:31:43.751Z,22.00
2019-03-24T08:34:12.027Z,19.20
2019-03-24T08:36:40.892Z,20.03
2019-03-24T08:39:08.959Z,17.83
2019-03-24T08:41:38.732Z,18.83
2019-03-24T08:44:06.395Z,17.77
2019-03-24T08:46:34.181Z,18.27
2019-03-24T08:49:01.658Z,18.37
2019-03-24T08:51:30.563Z,19.50
2019-03-24T08:53:59.493Z,19.97
2019-03-24T08:56:28.220Z,19.93
2019-03-24T08:58:56.317Z,18.93
2019-03-24T09:01:23.825Z,18.37
2019-03-24T09:03:51.254Z,19.23
2019-03-24T09:06:19.143Z,18.23
2019-03-24T09:08:49.063Z,17.40
2019-03-24T09:11:17.091Z,19.23
2019-03-24T09:13:46.055Z,16.50
2019-03-24T09:16:13.467Z,16.77
2019-03-24T09:18:51.704Z,17.27
2019-03-24T09:21:11.627Z,19.47
2019-03-24T09:23:39.055Z,16.80
2019-03-24T09:26:06.567Z,18.10
2019-03-24T09:28:34.316Z,18.53
2019-03-24T09:31:02.815Z,19.30
2019-03-24T09:33:32.135Z,18.03
2019-03-24T09:35:59.819Z,19.43
2019-03-24T09:38:27.343Z,17.00
2019-03-24T09:40:56.632Z,18.90
2019-03-24T09:43:24.164Z,16.80
2019-03-24T09:45:52.360Z,17.03
2019-03-24T09:48:20.190Z,18.00
2019-03-24T09:50:48.008Z,18.93
2019-03-24T09:53:15.475Z,18.40
2019-03-24T09:55:44.893Z,18.73
2019-03-24T09:58:12.554Z,19.37
2019-03-24T10:00:39.989Z,17.40
2019-03-24T10:03:08.112Z,17.30
2019-03-24T10:05:36.360Z,18.87
2019-03-24T10:08:04.645Z,18.37
2019-03-24T10:10:34.215Z,18.30
2019-03-24T10:13:01.881Z,18.20
2019-03-24T10:15:29.496Z,17.70
2019-03-24T10:17:59.447Z,17.07
2019-03-24T10:20:29.061Z,18.53
2019-03-24T10:22:56.895Z,17.07
2019-03-24T10:25:25.411Z,17.93
2019-03-24T10:27:53.602Z,17.47
2019-03-24T10:30:21.531Z,16.90
2019-03-24T10:32:50.610Z,17.47
2019-03-24T10:35:18.623Z,16.90
2019-03-24T10:37:46.310Z,17.80
2019-03-24T10:40:14.251Z,16.90
2019-03-24T10:42:42.387Z,17.70
2019-03-24T10:45:12.037Z,16.93
2019-03-24T10:47:40.783Z,19.07
2019-03-24T10:50:08.827Z,17.30
2019-03-24T10:52:36.740Z,16.30
2019-03-24T10:55:05.564Z,17.50
2019-03-24T10:57:33.171Z,17.33
2019-03-24T11:00:01.549Z,16.20
2019-03-24T11:02:30.235Z,16.30
2019-03-24T11:04:57.831Z,18.50
2019-03-24T11:07:26.531Z,16.40
2019-03-24T11:09:54.412Z,17.57
2019-03-24T11:12:22.205Z,17.03
2019-03-24T11:14:50.867Z,15.93
2019-03-24T11:17:18.624Z,16.90
2019-03-24T11:19:46.295Z,17.47
2019-03-24T11:22:14.737Z,16.63
2019-03-24T11:24:42.275Z,16.33
2019-03-24T11:27:10.722Z,16.00
2019-03-24T11:29:38.891Z,15.20
2019-03-24T11:32:06.422Z,16.40
2019-03-24T11:34:34.555Z,17.60
2019-03-24T11:37:02.068Z,15.70
2019-03-24T11:39:29.872Z,14.10
2019-03-24T11:41:59.353Z,13.03
2019-03-24T11:44:26.857Z,15.40
2019-03-24T11:46:54.856Z,14.57
2019-03-24T11:49:22.666Z,14.57
2019-03-24T11:51:51.122Z,13.97
2019-03-24T11:54:19.223Z,15.40
2019-03-24T11:56:46.722Z,15.77
2019-03-24T11:59:14.427Z,14.33
2019-03-24T12:01:43.196Z,13.00
2019-03-24T12:04:12.047Z,15.27
2019-03-24T12:06:39.747Z,14.47
2019-03-24T12:09:08.132Z,13.90
2019-03-24T12:11:36.247Z,16.90
2019-03-24T12:14:04.916Z,15.50
2019-03-24T12:16:32.571Z,13.90
2019-03-24T12:19:00.031Z,13.10
2019-03-24T12:21:28.199Z,13.33
2019-03-24T12:23:55.851Z,15.23
2019-03-24T12:26:24.997Z,13.90
2019-03-24T12:28:52.763Z,14.90
2019-03-24T12:31:20.431Z,15.83
2019-03-24T12:33:47.819Z,13.87
2019-03-24T12:36:17.420Z,14.40
2019-03-24T12:38:46.755Z,13.60
2019-03-24T12:41:14.283Z,13.40
2019-03-24T12:43:42.403Z,13.33
2019-03-24T12:46:12.548Z,16.60
2019-03-24T12:48:40.635Z,14.20
2019-03-24T12:51:09.883Z,11.03
2019-03-24T12:53:37.644Z,15.00
2019-03-24T12:56:06.445Z,16.10
2019-03-24T12:58:34.227Z,14.93
2019-03-24T13:01:02.137Z,14.70
2019-03-24T13:03:30.212Z,14.83
2019-03-24T13:05:58.228Z,14.50
2019-03-24T13:08:26.492Z,14.97
2019-03-24T13:10:54.256Z,13.47
2019-03-24T13:13:21.771Z,12.57
2019-03-24T13:15:49.212Z,14.43
2019-03-24T13:18:17.007Z,13.47
2019-03-24T13:20:44.670Z,14.33
2019-03-24T13:23:12.777Z,12.40
2019-03-24T13:25:42.180Z,14.20
2019-03-24T13:28:10.416Z,13.00
2019-03-24T13:30:38.096Z,14.17
2019-03-24T13:33:05.712Z,12.77
2019-03-24T13:35:33.383Z,13.07
2019-03-24T13:38:01.668Z,11.27
2019-03-24T13:40:30.415Z,13.30
2019-03-24T13:42:58.004Z,12.80
2019-03-24T13:45:27.160Z,14.80
2019-03-24T13:47:55.663Z,12.50
2019-03-24T13:50:31.434Z,11.10
2019-03-24T13:52:53.580Z,11.60
2019-03-24T13:55:22.659Z,11.57
2019-03-24T13:57:50.519Z,13.30
2019-03-24T14:00:20.552Z,11.80
2019-03-24T14:02:48.503Z,12.23
2019-03-24T14:05:16.045Z,12.80
2019-03-24T14:07:44.131Z,13.80
2019-03-24T14:10:11.527Z,13.20
2019-03-24T14:12:39.850Z,11.83
2019-03-24T14:15:08.203Z,12.80
2019-03-24T14:17:37.176Z,16.93
2019-03-24T14:20:06.666Z,13.57
2019-03-24T14:22:34.347Z,13.13
2019-03-24T14:25:04.075Z,12.63
2019-03-24T14:27:32.197Z,12.80
2019-03-24T14:30:01.783Z,13.10
2019-03-24T14:32:29.291Z,12.60
2019-03-24T14:34:57.411Z,12.73
2019-03-24T14:37:26.152Z,11.50
2019-03-24T14:39:54.648Z,12.53
2019-03-24T14:42:22.159Z,11.83
2019-03-24T14:44:50.527Z,12.30
2019-03-24T14:47:18.215Z,12.13
2019-03-24T14:49:47.208Z,18.90
2019-03-24T14:52:16.959Z,25.63
2019-03-24T14:54:47.492Z,17.70
2019-03-24T14:57:16.355Z,13.58
2019-03-24T14:59:44.035Z,12.20
2019-03-24T15:02:11.795Z,10.70
2019-03-24T15:04:40.627Z,12.40
2019-03-24T15:07:08.456Z,9.13
2019-03-24T15:09:36.907Z,10.50
2019-03-24T15:12:06.036Z,9.50
2019-03-24T15:14:34.370Z,9.27
2019-03-24T15:17:04.702Z,6.90
2019-03-24T15:19:32.387Z,8.57
2019-03-24T15:22:02.326Z,13.03
2019-03-24T15:24:30.675Z,16.50
2019-03-24T15:26:59.371Z,10.90
2019-03-24T15:29:27.955Z,10.00
2019-03-24T15:31:56.236Z,10.23
2019-03-24T15:34:25.271Z,10.10
2019-03-24T15:36:54.160Z,11.05
2019-03-24T15:39:22.505Z,10.95
2019-03-24T15:41:51.396Z,11.13
2019-03-24T15:44:20.183Z,10.07
2019-03-24T15:46:48.963Z,9.40
2019-03-24T15:49:16.719Z,9.13
2019-03-24T15:51:44.437Z,10.00
2019-03-24T15:54:13.437Z,9.50
2019-03-24T15:56:41.872Z,10.30
2019-03-24T15:59:09.840Z,10.93
2019-03-24T16:01:37.644Z,9.50
2019-03-24T16:04:05.363Z,9.10
2019-03-24T16:06:32.927Z,9.97
2019-03-24T16:09:01.155Z,9.57
2019-03-24T16:11:29.887Z,10.10
2019-03-24T16:13:58.907Z,9.73
2019-03-24T16:16:29.005Z,10.00
2019-03-24T16:18:56.903Z,8.03
2019-03-24T16:21:28.027Z,10.23
2019-03-24T16:23:54.435Z,9.00
2019-03-24T16:26:23.452Z,9.90
2019-03-24T16:28:51.801Z,8.27
2019-03-24T16:31:20.134Z,8.83
2019-03-24T16:33:48.265Z,8.83
2019-03-24T16:36:15.795Z,8.73
2019-03-24T16:38:48.977Z,8.17
2019-03-24T16:41:13.791Z,9.60
2019-03-24T16:43:42.316Z,7.77
2019-03-24T16:46:11.188Z,8.07
2019-03-24T16:48:40.507Z,6.30
2019-03-24T16:51:09.375Z,7.23
2019-03-24T16:53:37.520Z,11.33
2019-03-24T16:56:06.761Z,15.40
2019-03-24T16:58:34.519Z,9.93
2019-03-24T17:01:02.388Z,7.23
2019-03-24T17:03:30.079Z,7.73
2019-03-24T17:05:59.235Z,7.23
2019-03-24T17:08:28.795Z,6.70
2019-03-24T17:10:57.226Z,6.77
2019-03-24T17:13:25.123Z,7.20
2019-03-24T17:15:53.635Z,6.60
2019-03-24T17:18:21.182Z,6.90
2019-03-24T17:20:49.815Z,6.10
2019-03-24T17:23:18.803Z,7.77
2019-03-24T17:25:47.578Z,6.83
2019-03-24T17:28:16.363Z,6.83
2019-03-24T17:30:44.032Z,6.10
2019-03-24T17:33:12.087Z,6.70
2019-03-24T17:35:40.493Z,7.63
2019-03-24T17:38:08.615Z,7.10
2019-03-24T17:40:38.970Z,6.93
2019-03-24T17:43:07.418Z,6.20
2019-03-24T17:45:35.089Z,6.23
2019-03-24T17:48:04.784Z,5.77
2019-03-24T17:50:33.551Z,5.93
2019-03-24T17:53:02.331Z,5.90
2019-03-24T17:55:31.178Z,6.50
2019-03-24T17:58:00.719Z,13.03
2019-03-24T18:00:39.847Z,13.30
2019-03-24T18:03:08.088Z,7.20
2019-03-24T18:05:36.043Z,7.50
2019-03-24T18:08:04.076Z,8.07
2019-03-24T18:10:32.380Z,6.70
2019-03-24T18:13:00.376Z,7.40
2019-03-24T18:15:28.680Z,8.20
2019-03-24T18:17:57.608Z,7.83
2019-03-24T18:20:30.447Z,7.50
2019-03-24T18:22:58.551Z,7.73
2019-03-24T18:25:26.674Z,6.90
2019-03-24T18:27:54.851Z,7.90
2019-03-24T18:30:24.192Z,7.47
2019-03-24T18:32:51.795Z,6.70
2019-03-24T18:35:19.435Z,7.40
2019-03-24T18:37:46.985Z,8.20
2019-03-24T18:40:15.525Z,7.20
2019-03-24T18:42:43.595Z,7.60
2019-03-24T18:45:13.341Z,6.37
2019-03-24T18:47:41.243Z,6.10
2019-03-24T18:50:09.750Z,6.00
2019-03-24T18:52:37.519Z,4.80
2019-03-24T18:55:07.051Z,5.57
2019-03-24T18:57:35.768Z,5.40
2019-03-24T19:00:04.444Z,4.93
2019-03-24T19:02:32.383Z,4.70
2019-03-24T19:05:00.352Z,4.87
2019-03-24T19:07:28.739Z,4.97
2019-03-24T19:09:56.667Z,3.50
2019-03-24T19:12:24.459Z,4.67
2019-03-24T19:14:54.238Z,4.60
2019-03-24T19:17:22.091Z,4.20
2019-03-24T19:19:49.628Z,4.17
2019-03-24T19:22:18.587Z,4.10
2019-03-24T19:24:47.384Z,5.20
2019-03-24T19:27:16.191Z,5.10
2019-03-24T19:29:43.841Z,4.10
2019-03-24T19:32:13.040Z,3.40
2019-03-24T19:34:41.859Z,3.67
2019-03-24T19:37:09.767Z,3.47
2019-03-24T19:39:37.331Z,4.20
2019-03-24T19:42:05.887Z,4.43
2019-03-24T19:44:33.407Z,2.57
2019-03-24T19:47:01.075Z,2.10
2019-03-24T19:49:28.715Z,2.53
2019-03-24T19:51:56.223Z,2.50
2019-03-24T19:54:23.929Z,3.03
2019-03-24T19:56:52.427Z,2.70
2019-03-24T19:59:20.288Z,2.33
2019-03-24T20:01:48.340Z,3.20
2019-03-24T20:04:15.871Z,2.03
2019-03-24T20:06:43.807Z,1.77
2019-03-24T20:09:11.300Z,2.20
2019-03-24T20:11:39.964Z,1.80
2019-03-24T20:14:07.838Z,2.13
2019-03-24T20:16:35.271Z,2.17
2019-03-24T20:19:02.987Z,2.43
2019-03-24T20:21:30.655Z,3.03
2019-03-24T20:23:58.509Z,3.60
2019-03-24T20:26:27.394Z,4.60
2019-03-24T20:28:56.318Z,3.03
2019-03-24T20:31:24.335Z,2.83
2019-03-24T20:33:53.800Z,2.40
2019-03-24T20:36:22.174Z,3.20
2019-03-24T20:38:49.699Z,5.50
2019-03-24T20:41:17.803Z,5.60
2019-03-24T20:43:46.700Z,7.47
2019-03-24T20:46:14.647Z,7.67
2019-03-24T20:48:43.020Z,3.50
2019-03-24T20:51:10.677Z,2.53
2019-03-24T20:53:40.235Z,2.97
2019-03-24T20:56:08.355Z,1.90
2019-03-24T20:58:36.251Z,2.10
2019-03-24T21:01:05.503Z,1.70
2019-03-24T21:03:35.264Z,1.50
2019-03-24T21:06:03.999Z,1.60
2019-03-24T21:08:32.327Z,1.60
2019-03-24T21:11:00.848Z,1.30
2019-03-24T21:13:28.368Z,2.30
2019-03-24T21:15:55.887Z,2.13
2019-03-24T21:18:24.720Z,1.83
2019-03-24T21:20:52.553Z,1.80
2019-03-24T21:23:29.408Z,1.50
2019-03-24T21:25:50.711Z,1.77
2019-03-24T21:28:19.069Z,1.60
2019-03-24T21:30:47.403Z,1.90
2019-03-24T21:33:15.551Z,1.73
2019-03-24T21:35:44.244Z,1.83
2019-03-24T21:38:12.107Z,2.17
2019-03-24T21:40:40.947Z,1.70
2019-03-24T21:43:09.191Z,1.77
2019-03-24T21:45:36.872Z,2.07
2019-03-24T21:48:04.875Z,1.60
2019-03-24T21:50:32.770Z,1.63
2019-03-24T21:53:00.460Z,1.80
2019-03-24T21:55:28.471Z,2.57
2019-03-24T21:57:57.798Z,1.70
2019-03-24T22:00:31.933Z,2.10
2019-03-24T22:03:00.695Z,2.07
2019-03-24T22:05:29.035Z,1.80
2019-03-24T22:07:58.376Z,1.57
2019-03-24T22:10:26.272Z,2.03
2019-03-24T22:12:55.395Z,1.83
2019-03-24T22:15:24.115Z,1.70
2019-03-24T22:17:52.124Z,2.00
2019-03-24T22:20:21.148Z,1.70
2019-03-24T22:22:49.063Z,2.10
2019-03-24T22:25:17.091Z,1.80
2019-03-24T22:27:44.904Z,1.60
2019-03-24T22:30:13.195Z,1.83
2019-03-24T22:32:40.862Z,1.70
2019-03-24T22:35:08.609Z,1.83
2019-03-24T22:37:38.139Z,2.13
2019-03-24T22:40:06.017Z,1.70
2019-03-24T22:42:33.623Z,1.90
2019-03-24T22:45:02.893Z,1.57
2019-03-24T22:47:30.381Z,1.90
2019-03-24T22:49:57.959Z,2.03
2019-03-24T22:52:25.548Z,1.80
2019-03-24T22:54:54.451Z,1.60
2019-03-24T22:57:23.745Z,2.03
2019-03-24T22:59:53.006Z,1.27
2019-03-24T23:02:21.545Z,4.03
2019-03-24T23:04:49.167Z,3.30
2019-03-24T23:07:17.528Z,2.90
2019-03-24T23:09:45.181Z,6.47
2019-03-24T23:12:14.439Z,4.57
2019-03-24T23:14:42.324Z,2.70
2019-03-24T23:17:10.363Z,2.30
2019-03-24T23:19:39.172Z,2.53
2019-03-24T23:22:06.840Z,1.90
2019-03-24T23:24:34.231Z,2.17
2019-03-24T23:27:03.183Z,1.60
2019-03-24T23:29:32.240Z,2.20
2019-03-24T23:31:59.896Z,2.07
2019-03-24T23:34:28.672Z,2.23
2019-03-24T23:36:57.407Z,1.87
2019-03-24T23:39:25.230Z,3.30
2019-03-24T23:41:54.671Z,1.80
2019-03-24T23:44:22.563Z,2.30
2019-03-24T23:46:50.455Z,1.50
2019-03-24T23:49:18.455Z,1.87
2019-03-24T23:51:46.455Z,1.80
2019-03-24T23:54:26.201Z,1.40
2019-03-24T23:56:44.948Z,2.17
2019-03-24T23:59:13.008Z,2.00
